富山空港の過去48時間の天気

富山空港 (Toyama)

現在時刻: 4/27 14:02 JST (4/27 05:02 UTC) 以下の時間は現地時間です。

過去48時間のMETAR気象情報
時間 風向 風速(m/s) 視程 気温(℃) 湿度(%) 気圧(hPa) 天気現象
27 13:00 北西 4 10km以上 20 64 1009
27 12:00 西北西 5 10km以上 21 53 1008
27 11:00 西北西 4 10km以上 21 49 1009
27 10:00 西北西 3 10km以上 20 60 1010
27 09:00 北西 3 10km以上 19 60 1010
27 08:00 不定 1 10km以上 19 52 1010
27 07:00 不定 1 10km以上 13 82 1010
27 06:10 不定 1 10km以上 11 94 1010
26 21:00 西 1 10km以上 13 82 1013
26 20:00 不定 1 10km以上 14 77 1013
26 19:00 3 10km以上 15 63 1013
26 18:00 2 10km以上 17 55 1013
26 17:00 北北西 3 10km以上 18 45 1013
26 16:00 4 10km以上 18 49 1012
26 15:00 4 10km以上 20 43 1013
26 14:00 2 10km以上 19 52 1013
26 13:00 不定 2 10km以上 19 52 1013
26 12:00 不定 2 10km以上 18 52 1013
26 11:00 北西 2 10km以上 16 59 1014
26 10:00 不定 1 10km以上 14 63 1014
26 09:00 南西 2 10km以上 13 72 1014
26 08:00 不定 1 10km以上 13 72 1014
26 07:00 不定 1 10km以上 12 82 1014
26 06:10 不定 1 10km以上 11 87 1014
25 21:00 西 3 7,000m 11 100 1010 弱いしゅう雨
25 20:06 西 3 5,000m 12 94 1009 弱いしゅう雨 もや
25 20:00 西 3 4,000m 12 94 1009 弱いしゅう雨 もや
25 19:00 西 4 10km以上 12 94 1009 弱いしゅう雨
25 18:00 西南西 3 10km以上 13 88 1008 弱いしゅう雨
25 17:00 西南西 4 10km以上 13 88 1007 弱いしゅう雨
25 16:00 西 5 10km以上 14 82 1006 弱いしゅう雨
25 15:00 西 6 10km以上 14 88 1006 周辺でしゅう雨
RJNT 270400Z 31007KT 270V360 9999 FEW030 SCT070 BKN160 20/13 Q1009
RJNT 270300Z 30009KT 260V330 9999 FEW030 BKN170 BKN/// 21/11 Q1008
RJNT 270200Z 30008KT 9999 FEW030 SCT160 BKN/// 21/10 Q1009
RJNT 270100Z 29005KT 9999 FEW030 BKN170 BKN/// 20/12 Q1010
RJNT 270000Z 32005KT 290V360 9999 FEW030 BKN170 BKN/// 19/11 Q1010
RJNT 262300Z VRB01KT 9999 FEW030 SCT170 BKN/// 19/09 Q1010
RJNT 262200Z VRB02KT 9999 FEW040 BKN170 BKN/// 13/10 Q1010
RJNT 262110Z VRB02KT 9999 FEW040 SCT170 BKN/// 11/10 Q1010 RMK 1CU040 3AC170 A2984
RJNT 261200Z 28002KT 9999 FEW030 BKN/// 13/10 Q1013
RJNT 261100Z VRB02KT 9999 FEW030 BKN/// 14/10 Q1013
RJNT 261000Z 35006KT 9999 FEW030 BKN/// 15/08 Q1013
RJNT 260900Z 01004KT 9999 FEW030 BKN/// 17/08 Q1013
RJNT 260800Z 34005KT 9999 FEW030 BKN/// 18/06 Q1013
RJNT 260700Z 36008KT 9999 FEW030 BKN/// 18/07 Q1012
RJNT 260600Z 36008KT 9999 FEW030 BKN/// 20/07 Q1013
RJNT 260500Z 35003KT 270V050 9999 FEW030 19/09 Q1013
RJNT 260400Z VRB04KT 9999 FEW030 19/09 Q1013
RJNT 260300Z VRB03KT 9999 FEW030 18/08 Q1013
RJNT 260200Z 31003KT 240V020 9999 FEW030 16/08 Q1014
RJNT 260100Z VRB02KT 9999 FEW030 14/07 Q1014
RJNT 260000Z 22003KT 180V270 9999 FEW020 SCT030 13/08 Q1014
RJNT 252300Z VRB01KT 9999 FEW010 SCT020 13/08 Q1014
RJNT 252200Z VRB02KT 9999 FEW010 SCT040 12/09 Q1014
RJNT 252110Z VRB01KT 9999 FEW005 SCT020 BKN040 11/09 Q1014 RMK 1ST005 3CU020 5SC040 A2995
RJNT 251200Z 28006KT 7000 -SHRA FEW005 BKN010 11/11 Q1010
RJNT 251106Z 28005KT 5000 -SHRA BR FEW005 SCT008 BKN010 12/11 Q1009 RMK 1ST005 3ST008 7CU010 A2982
RJNT 251100Z 28006KT 240V310 4000 -SHRA BR FEW005 SCT008 BKN010 12/11 Q1009
RJNT 251000Z 26007KT 230V300 9999 -SHRA FEW005 BKN010 BKN020 12/11 Q1009
RJNT 250900Z 25005KT 9999 -SHRA FEW005 BKN010 BKN020 13/11 Q1008
RJNT 250800Z 25007KT 9999 -SHRA FEW005 SCT010 BKN020 13/11 Q1007
RJNT 250700Z 27009KT 230V310 9999 -SHRA FEW010 SCT015 BKN020 14/11 Q1006
RJNT 250600Z 27012KT 9999 VCSH FEW010 SCT015 BKN020 14/12 Q1006